sensor_id;sensor_type;location;lat;lon;timestamp;P1;durP1;ratioP1;P2;durP2;ratioP2
22441;SDS011;11388;54.456;9.752;2022-08-05T00:00:35;2.03;;;1.13;;
22441;SDS011;11388;54.456;9.752;2022-08-05T00:03:00;6.47;;;1.33;;
22441;SDS011;11388;54.456;9.752;2022-08-05T00:05:26;3.15;;;1.30;;
22441;SDS011;11388;54.456;9.752;2022-08-05T00:07:52;2.45;;;1.20;;
22441;SDS011;11388;54.456;9.752;2022-08-05T00:10:18;4.30;;;1.20;;
22441;SDS011;11388;54.456;9.752;2022-08-05T00:12:43;4.18;;;1.20;;
22441;SDS011;11388;54.456;9.752;2022-08-05T00:15:09;4.00;;;1.20;;
22441;SDS011;11388;54.456;9.752;2022-08-05T00:17:35;5.57;;;1.60;;
22441;SDS011;11388;54.456;9.752;2022-08-05T00:20:01;4.72;;;1.55;;
22441;SDS011;11388;54.456;9.752;2022-08-05T00:22:28;4.32;;;1.63;;
22441;SDS011;11388;54.456;9.752;2022-08-05T00:24:54;3.22;;;1.40;;
22441;SDS011;11388;54.456;9.752;2022-08-05T00:27:19;3.80;;;1.48;;
22441;SDS011;11388;54.456;9.752;2022-08-05T00:29:45;5.85;;;1.48;;
22441;SDS011;11388;54.456;9.752;2022-08-05T00:32:11;4.80;;;1.55;;
22441;SDS011;11388;54.456;9.752;2022-08-05T00:34:40;4.38;;;1.80;;
22441;SDS011;11388;54.456;9.752;2022-08-05T00:37:09;5.60;;;2.20;;
22441;SDS011;11388;54.456;9.752;2022-08-05T00:39:35;7.18;;;2.10;;
22441;SDS011;11388;54.456;9.752;2022-08-05T00:42:01;5.55;;;2.10;;
22441;SDS011;11388;54.456;9.752;2022-08-05T00:44:27;4.65;;;2.10;;
22441;SDS011;11388;54.456;9.752;2022-08-05T00:46:52;5.18;;;2.33;;
22441;SDS011;11388;54.456;9.752;2022-08-05T00:49:18;5.18;;;1.90;;
22441;SDS011;11388;54.456;9.752;2022-08-05T00:51:44;7.05;;;2.10;;
22441;SDS011;11388;54.456;9.752;2022-08-05T00:54:11;5.15;;;1.80;;
22441;SDS011;11388;54.456;9.752;2022-08-05T00:56:37;5.10;;;1.73;;
22441;SDS011;11388;54.456;9.752;2022-08-05T00:59:04;5.03;;;1.90;;
22441;SDS011;11388;54.456;9.752;2022-08-05T01:01:30;3.83;;;2.03;;
22441;SDS011;11388;54.456;9.752;2022-08-05T01:03:56;4.53;;;1.77;;
22441;SDS011;11388;54.456;9.752;2022-08-05T01:06:21;6.85;;;2.40;;
22441;SDS011;11388;54.456;9.752;2022-08-05T01:08:47;4.65;;;1.92;;
22441;SDS011;11388;54.456;9.752;2022-08-05T01:11:32;3.92;;;1.95;;
22441;SDS011;11388;54.456;9.752;2022-08-05T01:14:02;6.40;;;2.10;;
22441;SDS011;11388;54.456;9.752;2022-08-05T01:16:48;5.78;;;2.45;;
22441;SDS011;11388;54.456;9.752;2022-08-05T01:31:27;5.18;;;1.63;;
22441;SDS011;11388;54.456;9.752;2022-08-05T01:33:38;4.53;;;1.60;;
22441;SDS011;11388;54.456;9.752;2022-08-05T01:36:10;6.10;;;1.70;;
22441;SDS011;11388;54.456;9.752;2022-08-05T01:38:39;5.45;;;1.80;;
22441;SDS011;11388;54.456;9.752;2022-08-05T01:41:05;4.57;;;1.80;;
22441;SDS011;11388;54.456;9.752;2022-08-05T01:43:32;6.20;;;2.10;;
22441;SDS011;11388;54.456;9.752;2022-08-05T01:45:59;4.95;;;1.90;;
22441;SDS011;11388;54.456;9.752;2022-08-05T01:48:26;4.30;;;1.83;;
22441;SDS011;11388;54.456;9.752;2022-08-05T01:50:54;5.07;;;2.08;;
22441;SDS011;11388;54.456;9.752;2022-08-05T01:53:21;5.28;;;1.98;;
22441;SDS011;11388;54.456;9.752;2022-08-05T01:55:48;4.80;;;1.77;;
22441;SDS011;11388;54.456;9.752;2022-08-05T01:58:16;3.58;;;1.88;;
22441;SDS011;11388;54.456;9.752;2022-08-05T02:00:48;5.43;;;2.17;;
22441;SDS011;11388;54.456;9.752;2022-08-05T02:03:19;5.88;;;2.13;;
22441;SDS011;11388;54.456;9.752;2022-08-05T02:05:52;4.20;;;1.70;;
22441;SDS011;11388;54.456;9.752;2022-08-05T02:08:19;4.63;;;1.77;;
22441;SDS011;11388;54.456;9.752;2022-08-05T02:10:55;5.57;;;1.85;;
22441;SDS011;11388;54.456;9.752;2022-08-05T02:13:32;5.35;;;1.90;;
22441;SDS011;11388;54.456;9.752;2022-08-05T02:16:06;6.90;;;2.22;;
22441;SDS011;11388;54.456;9.752;2022-08-05T02:18:52;6.25;;;1.95;;
22441;SDS011;11388;54.456;9.752;2022-08-05T02:21:40;4.90;;;1.83;;
22441;SDS011;11388;54.456;9.752;2022-08-05T02:24:12;6.43;;;2.00;;
22441;SDS011;11388;54.456;9.752;2022-08-05T02:26:45;5.65;;;2.20;;
22441;SDS011;11388;54.456;9.752;2022-08-05T02:29:15;4.80;;;1.90;;
22441;SDS011;11388;54.456;9.752;2022-08-05T02:31:45;4.75;;;1.90;;
22441;SDS011;11388;54.456;9.752;2022-08-05T02:34:12;5.00;;;1.90;;
22441;SDS011;11388;54.456;9.752;2022-08-05T02:36:40;5.00;;;1.90;;
22441;SDS011;11388;54.456;9.752;2022-08-05T02:39:09;5.20;;;2.13;;
22441;SDS011;11388;54.456;9.752;2022-08-05T02:41:37;7.03;;;2.30;;
22441;SDS011;11388;54.456;9.752;2022-08-05T02:44:08;4.70;;;1.80;;
22441;SDS011;11388;54.456;9.752;2022-08-05T02:46:35;8.10;;;2.30;;
22441;SDS011;11388;54.456;9.752;2022-08-05T02:49:04;7.03;;;2.58;;
22441;SDS011;11388;54.456;9.752;2022-08-05T02:51:31;5.55;;;2.33;;
22441;SDS011;11388;54.456;9.752;2022-08-05T02:53:59;6.88;;;2.10;;
22441;SDS011;11388;54.456;9.752;2022-08-05T02:56:25;5.95;;;2.20;;
22441;SDS011;11388;54.456;9.752;2022-08-05T02:58:53;9.88;;;2.17;;
22441;SDS011;11388;54.456;9.752;2022-08-05T03:01:22;6.05;;;1.95;;
22441;SDS011;11388;54.456;9.752;2022-08-05T03:03:49;8.48;;;1.98;;
22441;SDS011;11388;54.456;9.752;2022-08-05T03:06:19;5.28;;;1.98;;
22441;SDS011;11388;54.456;9.752;2022-08-05T03:08:45;4.20;;;1.90;;
22441;SDS011;11388;54.456;9.752;2022-08-05T03:11:22;6.85;;;2.40;;
22441;SDS011;11388;54.456;9.752;2022-08-05T03:13:49;6.25;;;2.10;;
22441;SDS011;11388;54.456;9.752;2022-08-05T03:16:15;5.45;;;2.00;;
22441;SDS011;11388;54.456;9.752;2022-08-05T03:18:41;5.60;;;2.20;;
22441;SDS011;11388;54.456;9.752;2022-08-05T03:21:07;5.05;;;2.10;;
22441;SDS011;11388;54.456;9.752;2022-08-05T03:23:33;6.15;;;1.95;;
22441;SDS011;11388;54.456;9.752;2022-08-05T03:26:01;10.18;;;2.20;;
22441;SDS011;11388;54.456;9.752;2022-08-05T03:28:28;6.38;;;2.05;;
22441;SDS011;11388;54.456;9.752;2022-08-05T03:30:55;5.70;;;2.17;;
22441;SDS011;11388;54.456;9.752;2022-08-05T03:33:22;6.43;;;2.20;;
22441;SDS011;11388;54.456;9.752;2022-08-05T03:35:48;6.80;;;2.00;;
22441;SDS011;11388;54.456;9.752;2022-08-05T03:38:15;5.65;;;2.00;;
22441;SDS011;11388;54.456;9.752;2022-08-05T03:40:41;8.23;;;2.30;;
22441;SDS011;11388;54.456;9.752;2022-08-05T03:43:08;7.13;;;2.20;;
22441;SDS011;11388;54.456;9.752;2022-08-05T03:45:33;5.22;;;2.10;;
22441;SDS011;11388;54.456;9.752;2022-08-05T03:47:59;7.10;;;1.90;;
22441;SDS011;11388;54.456;9.752;2022-08-05T03:50:40;4.40;;;2.08;;
22441;SDS011;11388;54.456;9.752;2022-08-05T03:53:30;5.70;;;1.80;;
22441;SDS011;11388;54.456;9.752;2022-08-05T03:56:02;5.28;;;2.00;;
22441;SDS011;11388;54.456;9.752;2022-08-05T03:58:45;5.32;;;1.70;;
22441;SDS011;11388;54.456;9.752;2022-08-05T04:01:12;5.88;;;1.77;;
22441;SDS011;11388;54.456;9.752;2022-08-05T04:03:41;4.60;;;1.77;;
22441;SDS011;11388;54.456;9.752;2022-08-05T04:06:09;5.78;;;1.85;;
22441;SDS011;11388;54.456;9.752;2022-08-05T04:08:35;4.53;;;1.65;;
22441;SDS011;11388;54.456;9.752;2022-08-05T04:11:17;4.63;;;1.98;;
22441;SDS011;11388;54.456;9.752;2022-08-05T04:13:43;5.20;;;1.77;;
22441;SDS011;11388;54.456;9.752;2022-08-05T04:16:10;7.25;;;1.90;;
22441;SDS011;11388;54.456;9.752;2022-08-05T04:18:37;3.78;;;1.73;;
22441;SDS011;11388;54.456;9.752;2022-08-05T04:21:04;5.32;;;1.73;;
22441;SDS011;11388;54.456;9.752;2022-08-05T04:23:31;6.30;;;1.92;;
22441;SDS011;11388;54.456;9.752;2022-08-05T04:25:58;6.00;;;1.80;;
22441;SDS011;11388;54.456;9.752;2022-08-05T04:28:24;5.18;;;1.90;;
22441;SDS011;11388;54.456;9.752;2022-08-05T04:30:49;6.85;;;2.15;;
22441;SDS011;11388;54.456;9.752;2022-08-05T04:33:15;3.67;;;1.55;;
22441;SDS011;11388;54.456;9.752;2022-08-05T04:35:41;4.93;;;1.80;;
22441;SDS011;11388;54.456;9.752;2022-08-05T04:38:08;7.45;;;2.10;;
22441;SDS011;11388;54.456;9.752;2022-08-05T04:40:35;7.65;;;1.80;;
22441;SDS011;11388;54.456;9.752;2022-08-05T04:43:02;6.70;;;2.10;;
22441;SDS011;11388;54.456;9.752;2022-08-05T04:45:28;6.80;;;1.90;;
22441;SDS011;11388;54.456;9.752;2022-08-05T04:48:02;4.32;;;1.80;;
22441;SDS011;11388;54.456;9.752;2022-08-05T04:50:30;5.20;;;2.13;;
22441;SDS011;11388;54.456;9.752;2022-08-05T04:53:01;4.93;;;1.83;;
22441;SDS011;11388;54.456;9.752;2022-08-05T04:55:27;3.60;;;1.67;;
22441;SDS011;11388;54.456;9.752;2022-08-05T04:57:53;3.67;;;1.75;;
22441;SDS011;11388;54.456;9.752;2022-08-05T05:00:19;3.78;;;1.70;;
22441;SDS011;11388;54.456;9.752;2022-08-05T05:02:44;6.40;;;1.92;;
22441;SDS011;11388;54.456;9.752;2022-08-05T05:05:10;4.70;;;1.80;;
22441;SDS011;11388;54.456;9.752;2022-08-05T05:07:36;6.03;;;1.80;;
22441;SDS011;11388;54.456;9.752;2022-08-05T05:10:02;4.63;;;1.77;;
22441;SDS011;11388;54.456;9.752;2022-08-05T05:12:29;4.18;;;2.00;;
22441;SDS011;11388;54.456;9.752;2022-08-05T05:14:55;4.90;;;2.20;;
22441;SDS011;11388;54.456;9.752;2022-08-05T05:17:20;3.38;;;1.85;;
22441;SDS011;11388;54.456;9.752;2022-08-05T05:19:46;6.38;;;1.63;;
22441;SDS011;11388;54.456;9.752;2022-08-05T05:22:12;6.13;;;2.08;;
22441;SDS011;11388;54.456;9.752;2022-08-05T05:24:38;4.43;;;1.70;;
22441;SDS011;11388;54.456;9.752;2022-08-05T05:27:04;4.60;;;2.03;;
22441;SDS011;11388;54.456;9.752;2022-08-05T05:29:29;6.25;;;1.92;;
22441;SDS011;11388;54.456;9.752;2022-08-05T05:31:55;6.88;;;1.90;;
22441;SDS011;11388;54.456;9.752;2022-08-05T05:34:21;6.03;;;1.98;;
22441;SDS011;11388;54.456;9.752;2022-08-05T05:36:47;7.93;;;1.95;;
22441;SDS011;11388;54.456;9.752;2022-08-05T05:39:13;5.97;;;2.00;;
22441;SDS011;11388;54.456;9.752;2022-08-05T05:41:39;6.75;;;1.65;;
22441;SDS011;11388;54.456;9.752;2022-08-05T05:44:04;5.22;;;1.90;;
22441;SDS011;11388;54.456;9.752;2022-08-05T05:46:30;7.93;;;2.25;;
22441;SDS011;11388;54.456;9.752;2022-08-05T05:48:56;4.57;;;1.60;;
22441;SDS011;11388;54.456;9.752;2022-08-05T05:51:22;7.20;;;1.77;;
22441;SDS011;11388;54.456;9.752;2022-08-05T05:53:49;6.75;;;1.83;;
22441;SDS011;11388;54.456;9.752;2022-08-05T05:56:16;5.38;;;1.80;;
22441;SDS011;11388;54.456;9.752;2022-08-05T05:58:45;5.85;;;1.70;;
22441;SDS011;11388;54.456;9.752;2022-08-05T06:01:12;4.18;;;1.70;;
22441;SDS011;11388;54.456;9.752;2022-08-05T06:03:39;5.57;;;1.63;;
22441;SDS011;11388;54.456;9.752;2022-08-05T06:06:05;4.25;;;1.77;;
22441;SDS011;11388;54.456;9.752;2022-08-05T06:08:32;5.63;;;1.67;;
22441;SDS011;11388;54.456;9.752;2022-08-05T06:10:57;4.10;;;1.73;;
22441;SDS011;11388;54.456;9.752;2022-08-05T06:13:23;5.25;;;1.80;;
22441;SDS011;11388;54.456;9.752;2022-08-05T06:15:49;4.63;;;1.60;;
22441;SDS011;11388;54.456;9.752;2022-08-05T06:18:15;3.97;;;1.33;;
22441;SDS011;11388;54.456;9.752;2022-08-05T06:20:44;4.30;;;1.60;;
22441;SDS011;11388;54.456;9.752;2022-08-05T06:23:12;7.05;;;1.90;;
22441;SDS011;11388;54.456;9.752;2022-08-05T06:25:38;7.57;;;1.50;;
22441;SDS011;11388;54.456;9.752;2022-08-05T06:28:03;6.03;;;1.70;;
22441;SDS011;11388;54.456;9.752;2022-08-05T06:30:29;7.32;;;1.85;;
22441;SDS011;11388;54.456;9.752;2022-08-05T06:32:55;6.63;;;1.80;;
22441;SDS011;11388;54.456;9.752;2022-08-05T06:35:21;4.93;;;1.27;;
22441;SDS011;11388;54.456;9.752;2022-08-05T06:37:47;5.53;;;1.60;;
22441;SDS011;11388;54.456;9.752;2022-08-05T06:40:20;4.53;;;1.38;;
22441;SDS011;11388;54.456;9.752;2022-08-05T06:42:47;7.07;;;1.83;;
22441;SDS011;11388;54.456;9.752;2022-08-05T06:45:14;3.85;;;1.20;;
22441;SDS011;11388;54.456;9.752;2022-08-05T06:47:40;6.00;;;1.50;;
22441;SDS011;11388;54.456;9.752;2022-08-05T06:50:05;5.85;;;1.50;;
22441;SDS011;11388;54.456;9.752;2022-08-05T06:52:31;5.72;;;1.30;;
22441;SDS011;11388;54.456;9.752;2022-08-05T06:55:10;4.43;;;1.40;;
22441;SDS011;11388;54.456;9.752;2022-08-05T06:57:36;6.13;;;1.60;;
22441;SDS011;11388;54.456;9.752;2022-08-05T07:00:02;5.32;;;1.48;;
22441;SDS011;11388;54.456;9.752;2022-08-05T07:02:29;4.80;;;1.48;;
22441;SDS011;11388;54.456;9.752;2022-08-05T07:04:54;5.22;;;1.48;;
22441;SDS011;11388;54.456;9.752;2022-08-05T07:07:20;5.40;;;1.35;;
22441;SDS011;11388;54.456;9.752;2022-08-05T07:09:46;3.97;;;1.35;;
22441;SDS011;11388;54.456;9.752;2022-08-05T07:12:12;6.10;;;1.48;;
22441;SDS011;11388;54.456;9.752;2022-08-05T07:15:04;4.43;;;1.23;;
22441;SDS011;11388;54.456;9.752;2022-08-05T07:17:48;4.45;;;1.30;;
22441;SDS011;11388;54.456;9.752;2022-08-05T07:20:14;3.70;;;1.27;;
22441;SDS011;11388;54.456;9.752;2022-08-05T07:22:40;4.53;;;1.13;;
22441;SDS011;11388;54.456;9.752;2022-08-05T07:25:08;6.13;;;1.35;;
22441;SDS011;11388;54.456;9.752;2022-08-05T07:27:34;5.80;;;1.27;;
22441;SDS011;11388;54.456;9.752;2022-08-05T07:30:00;5.53;;;1.38;;
22441;SDS011;11388;54.456;9.752;2022-08-05T07:32:25;4.60;;;1.20;;
22441;SDS011;11388;54.456;9.752;2022-08-05T07:34:51;4.35;;;1.20;;
22441;SDS011;11388;54.456;9.752;2022-08-05T07:37:17;5.60;;;1.35;;
22441;SDS011;11388;54.456;9.752;2022-08-05T07:39:43;4.97;;;1.10;;
22441;SDS011;11388;54.456;9.752;2022-08-05T07:42:09;5.22;;;1.20;;
22441;SDS011;11388;54.456;9.752;2022-08-05T07:44:35;3.63;;;1.10;;
22441;SDS011;11388;54.456;9.752;2022-08-05T07:47:00;5.30;;;1.40;;
22441;SDS011;11388;54.456;9.752;2022-08-05T07:49:26;5.55;;;1.10;;
22441;SDS011;11388;54.456;9.752;2022-08-05T07:54:50;4.70;;;1.10;;
22441;SDS011;11388;54.456;9.752;2022-08-05T07:57:15;5.70;;;1.25;;
22441;SDS011;11388;54.456;9.752;2022-08-05T07:59:41;5.15;;;1.23;;
22441;SDS011;11388;54.456;9.752;2022-08-05T08:05:29;4.47;;;1.20;;
22441;SDS011;11388;54.456;9.752;2022-08-05T08:07:55;5.70;;;1.38;;
22441;SDS011;11388;54.456;9.752;2022-08-05T08:10:21;4.47;;;1.23;;
22441;SDS011;11388;54.456;9.752;2022-08-05T08:12:49;5.53;;;1.48;;
22441;SDS011;11388;54.456;9.752;2022-08-05T08:15:15;4.03;;;1.13;;
22441;SDS011;11388;54.456;9.752;2022-08-05T08:17:42;7.20;;;1.30;;
22441;SDS011;11388;54.456;9.752;2022-08-05T08:20:09;5.28;;;1.52;;
22441;SDS011;11388;54.456;9.752;2022-08-05T08:22:35;7.47;;;1.33;;
22441;SDS011;11388;54.456;9.752;2022-08-05T08:25:01;3.30;;;1.08;;
22441;SDS011;11388;54.456;9.752;2022-08-05T08:27:26;5.72;;;1.40;;
22441;SDS011;11388;54.456;9.752;2022-08-05T08:29:53;4.50;;;1.23;;
22441;SDS011;11388;54.456;9.752;2022-08-05T08:32:21;3.97;;;1.10;;
22441;SDS011;11388;54.456;9.752;2022-08-05T08:34:49;4.07;;;1.17;;
22441;SDS011;11388;54.456;9.752;2022-08-05T08:37:20;5.13;;;1.30;;
22441;SDS011;11388;54.456;9.752;2022-08-05T08:39:51;4.22;;;1.02;;
22441;SDS011;11388;54.456;9.752;2022-08-05T08:42:23;5.93;;;1.23;;
22441;SDS011;11388;54.456;9.752;2022-08-05T08:44:55;3.90;;;0.90;;
22441;SDS011;11388;54.456;9.752;2022-08-05T08:47:33;5.15;;;1.27;;
22441;SDS011;11388;54.456;9.752;2022-08-05T08:50:00;4.90;;;1.00;;
22441;SDS011;11388;54.456;9.752;2022-08-05T08:52:31;4.25;;;1.00;;
22441;SDS011;11388;54.456;9.752;2022-08-05T08:55:02;5.70;;;1.10;;
22441;SDS011;11388;54.456;9.752;2022-08-05T08:57:28;7.65;;;1.10;;
22441;SDS011;11388;54.456;9.752;2022-08-05T08:59:57;5.15;;;1.00;;
22441;SDS011;11388;54.456;9.752;2022-08-05T09:02:38;4.63;;;1.00;;
22441;SDS011;11388;54.456;9.752;2022-08-05T09:05:13;5.20;;;1.10;;
22441;SDS011;11388;54.456;9.752;2022-08-05T09:07:39;6.22;;;0.90;;
22441;SDS011;11388;54.456;9.752;2022-08-05T09:10:10;5.38;;;0.93;;
22441;SDS011;11388;54.456;9.752;2022-08-05T09:12:49;7.78;;;1.30;;
22441;SDS011;11388;54.456;9.752;2022-08-05T09:15:41;5.63;;;1.40;;
22441;SDS011;11388;54.456;9.752;2022-08-05T09:18:10;3.50;;;0.88;;
22441;SDS011;11388;54.456;9.752;2022-08-05T09:23:46;3.75;;;0.85;;
22441;SDS011;11388;54.456;9.752;2022-08-05T09:26:33;4.22;;;0.95;;
22441;SDS011;11388;54.456;9.752;2022-08-05T09:35:58;5.53;;;1.10;;
22441;SDS011;11388;54.456;9.752;2022-08-05T09:39:03;5.70;;;1.00;;
22441;SDS011;11388;54.456;9.752;2022-08-05T09:45:37;4.00;;;0.95;;
22441;SDS011;11388;54.456;9.752;2022-08-05T09:51:31;4.22;;;1.00;;
22441;SDS011;11388;54.456;9.752;2022-08-05T09:54:12;3.42;;;0.70;;
22441;SDS011;11388;54.456;9.752;2022-08-05T09:56:58;4.07;;;0.90;;
22441;SDS011;11388;54.456;9.752;2022-08-05T09:59:33;4.00;;;1.00;;
22441;SDS011;11388;54.456;9.752;2022-08-05T10:02:12;4.82;;;1.00;;
22441;SDS011;11388;54.456;9.752;2022-08-05T10:04:37;4.60;;;1.10;;
22441;SDS011;11388;54.456;9.752;2022-08-05T10:07:04;3.47;;;0.80;;
22441;SDS011;11388;54.456;9.752;2022-08-05T10:09:32;4.20;;;0.73;;
22441;SDS011;11388;54.456;9.752;2022-08-05T10:14:42;3.85;;;0.80;;
22441;SDS011;11388;54.456;9.752;2022-08-05T10:17:13;4.95;;;0.93;;
22441;SDS011;11388;54.456;9.752;2022-08-05T10:19:39;7.05;;;0.85;;
22441;SDS011;11388;54.456;9.752;2022-08-05T10:22:09;2.58;;;0.77;;
22441;SDS011;11388;54.456;9.752;2022-08-05T10:24:35;3.53;;;0.70;;
22441;SDS011;11388;54.456;9.752;2022-08-05T10:27:01;5.40;;;0.98;;
22441;SDS011;11388;54.456;9.752;2022-08-05T10:29:27;4.10;;;1.13;;
22441;SDS011;11388;54.456;9.752;2022-08-05T10:31:56;4.18;;;0.73;;
22441;SDS011;11388;54.456;9.752;2022-08-05T10:34:22;5.38;;;0.90;;
22441;SDS011;11388;54.456;9.752;2022-08-05T10:36:48;3.03;;;0.80;;
22441;SDS011;11388;54.456;9.752;2022-08-05T10:39:16;4.80;;;0.80;;
22441;SDS011;11388;54.456;9.752;2022-08-05T10:41:47;5.97;;;0.80;;
22441;SDS011;11388;54.456;9.752;2022-08-05T10:44:47;3.75;;;0.85;;
22441;SDS011;11388;54.456;9.752;2022-08-05T10:47:13;5.05;;;0.80;;
22441;SDS011;11388;54.456;9.752;2022-08-05T10:52:43;1.95;;;0.80;;
22441;SDS011;11388;54.456;9.752;2022-08-05T10:55:24;3.55;;;0.80;;
22441;SDS011;11388;54.456;9.752;2022-08-05T10:58:07;4.80;;;0.70;;
22441;SDS011;11388;54.456;9.752;2022-08-05T11:00:35;3.97;;;0.60;;
22441;SDS011;11388;54.456;9.752;2022-08-05T11:05:31;3.58;;;0.60;;
22441;SDS011;11388;54.456;9.752;2022-08-05T11:07:58;4.40;;;0.80;;
22441;SDS011;11388;54.456;9.752;2022-08-05T11:10:29;5.15;;;1.00;;
22441;SDS011;11388;54.456;9.752;2022-08-05T11:12:57;3.05;;;0.60;;
22441;SDS011;11388;54.456;9.752;2022-08-05T11:20:55;2.58;;;0.80;;
22441;SDS011;11388;54.456;9.752;2022-08-05T11:23:27;2.85;;;0.70;;
22441;SDS011;11388;54.456;9.752;2022-08-05T11:28:59;3.33;;;0.65;;
22441;SDS011;11388;54.456;9.752;2022-08-05T11:31:30;2.47;;;0.70;;
22441;SDS011;11388;54.456;9.752;2022-08-05T11:34:03;4.18;;;1.00;;
22441;SDS011;11388;54.456;9.752;2022-08-05T11:52:10;4.20;;;0.75;;
22441;SDS011;11388;54.456;9.752;2022-08-05T11:54:54;3.47;;;0.70;;
22441;SDS011;11388;54.456;9.752;2022-08-05T11:57:48;2.40;;;0.60;;
22441;SDS011;11388;54.456;9.752;2022-08-05T12:07:00;2.53;;;0.70;;
22441;SDS011;11388;54.456;9.752;2022-08-05T12:09:34;3.17;;;0.90;;
22441;SDS011;11388;54.456;9.752;2022-08-05T12:15:27;3.67;;;0.70;;
22441;SDS011;11388;54.456;9.752;2022-08-05T12:20:41;3.47;;;0.75;;
22441;SDS011;11388;54.456;9.752;2022-08-05T12:23:10;2.38;;;0.70;;
22441;SDS011;11388;54.456;9.752;2022-08-05T12:25:51;3.13;;;0.70;;
22441;SDS011;11388;54.456;9.752;2022-08-05T12:31:07;4.40;;;0.70;;
22441;SDS011;11388;54.456;9.752;2022-08-05T12:37:26;3.50;;;0.70;;
22441;SDS011;11388;54.456;9.752;2022-08-05T12:44:25;2.83;;;0.50;;
22441;SDS011;11388;54.456;9.752;2022-08-05T13:52:26;2.15;;;0.60;;
22441;SDS011;11388;54.456;9.752;2022-08-05T13:54:57;2.10;;;0.70;;
22441;SDS011;11388;54.456;9.752;2022-08-05T13:57:37;2.15;;;1.00;;
22441;SDS011;11388;54.456;9.752;2022-08-05T14:00:06;2.35;;;0.63;;
22441;SDS011;11388;54.456;9.752;2022-08-05T14:02:33;2.40;;;0.70;;
22441;SDS011;11388;54.456;9.752;2022-08-05T14:05:03;2.92;;;0.70;;
22441;SDS011;11388;54.456;9.752;2022-08-05T14:07:48;4.00;;;0.60;;
22441;SDS011;11388;54.456;9.752;2022-08-05T14:10:44;2.90;;;0.63;;
22441;SDS011;11388;54.456;9.752;2022-08-05T14:13:10;5.38;;;1.00;;
22441;SDS011;11388;54.456;9.752;2022-08-05T14:15:36;4.68;;;1.50;;
22441;SDS011;11388;54.456;9.752;2022-08-05T14:18:05;3.63;;;1.02;;
22441;SDS011;11388;54.456;9.752;2022-08-05T14:20:33;2.45;;;0.60;;
22441;SDS011;11388;54.456;9.752;2022-08-05T14:22:59;3.45;;;0.60;;
22441;SDS011;11388;54.456;9.752;2022-08-05T14:25:26;2.40;;;0.63;;
22441;SDS011;11388;54.456;9.752;2022-08-05T14:27:52;5.00;;;0.60;;
22441;SDS011;11388;54.456;9.752;2022-08-05T14:30:18;2.92;;;0.47;;
22441;SDS011;11388;54.456;9.752;2022-08-05T14:32:44;3.05;;;0.50;;
22441;SDS011;11388;54.456;9.752;2022-08-05T14:35:13;5.25;;;1.00;;
22441;SDS011;11388;54.456;9.752;2022-08-05T14:37:44;3.25;;;1.00;;
22441;SDS011;11388;54.456;9.752;2022-08-05T14:40:10;6.50;;;2.40;;
22441;SDS011;11388;54.456;9.752;2022-08-05T14:42:36;4.88;;;1.50;;
22441;SDS011;11388;54.456;9.752;2022-08-05T14:45:02;3.53;;;1.10;;
22441;SDS011;11388;54.456;9.752;2022-08-05T14:47:33;5.25;;;2.05;;
22441;SDS011;11388;54.456;9.752;2022-08-05T14:56:20;3.15;;;0.80;;
22441;SDS011;11388;54.456;9.752;2022-08-05T14:59:02;3.25;;;0.70;;
22441;SDS011;11388;54.456;9.752;2022-08-05T15:01:50;4.13;;;0.80;;
22441;SDS011;11388;54.456;9.752;2022-08-05T15:04:19;1.95;;;0.63;;
22441;SDS011;11388;54.456;9.752;2022-08-05T15:06:46;5.10;;;0.82;;
22441;SDS011;11388;54.456;9.752;2022-08-05T15:12:00;3.13;;;0.80;;
22441;SDS011;11388;54.456;9.752;2022-08-05T15:14:25;3.47;;;0.88;;
22441;SDS011;11388;54.456;9.752;2022-08-05T15:16:51;3.47;;;0.77;;
22441;SDS011;11388;54.456;9.752;2022-08-05T15:19:17;4.15;;;0.73;;
22441;SDS011;11388;54.456;9.752;2022-08-05T15:21:43;2.42;;;0.70;;
22441;SDS011;11388;54.456;9.752;2022-08-05T15:24:11;3.05;;;0.50;;
22441;SDS011;11388;54.456;9.752;2022-08-05T15:26:43;2.38;;;0.70;;
22441;SDS011;11388;54.456;9.752;2022-08-05T15:29:27;3.05;;;0.70;;
22441;SDS011;11388;54.456;9.752;2022-08-05T15:34:51;3.22;;;0.40;;
22441;SDS011;11388;54.456;9.752;2022-08-05T15:37:16;1.45;;;0.32;;
22441;SDS011;11388;54.456;9.752;2022-08-05T15:39:42;2.53;;;0.50;;
22441;SDS011;11388;54.456;9.752;2022-08-05T15:42:20;1.55;;;0.40;;
22441;SDS011;11388;54.456;9.752;2022-08-05T15:44:57;2.72;;;0.50;;
22441;SDS011;11388;54.456;9.752;2022-08-05T15:48:14;2.40;;;0.60;;
22441;SDS011;11388;54.456;9.752;2022-08-05T15:50:40;3.13;;;0.50;;
22441;SDS011;11388;54.456;9.752;2022-08-05T15:53:06;1.80;;;0.50;;
22441;SDS011;11388;54.456;9.752;2022-08-05T15:55:47;1.92;;;0.50;;
22441;SDS011;11388;54.456;9.752;2022-08-05T15:58:13;2.00;;;0.47;;
22441;SDS011;11388;54.456;9.752;2022-08-05T16:00:48;1.73;;;0.50;;
22441;SDS011;11388;54.456;9.752;2022-08-05T16:03:16;2.65;;;0.60;;
22441;SDS011;11388;54.456;9.752;2022-08-05T16:05:42;1.40;;;0.50;;
22441;SDS011;11388;54.456;9.752;2022-08-05T16:08:08;1.67;;;0.40;;
22441;SDS011;11388;54.456;9.752;2022-08-05T16:10:34;1.60;;;0.47;;
22441;SDS011;11388;54.456;9.752;2022-08-05T16:13:00;2.72;;;0.55;;
22441;SDS011;11388;54.456;9.752;2022-08-05T16:15:26;2.47;;;0.50;;
22441;SDS011;11388;54.456;9.752;2022-08-05T16:17:52;2.63;;;0.68;;
22441;SDS011;11388;54.456;9.752;2022-08-05T16:20:17;3.15;;;0.52;;
22441;SDS011;11388;54.456;9.752;2022-08-05T16:22:44;2.42;;;0.40;;
22441;SDS011;11388;54.456;9.752;2022-08-05T16:25:10;1.92;;;0.38;;
22441;SDS011;11388;54.456;9.752;2022-08-05T16:27:41;4.03;;;0.63;;
22441;SDS011;11388;54.456;9.752;2022-08-05T16:30:12;3.03;;;0.50;;
22441;SDS011;11388;54.456;9.752;2022-08-05T16:32:38;3.92;;;0.68;;
22441;SDS011;11388;54.456;9.752;2022-08-05T16:35:04;1.85;;;0.50;;
22441;SDS011;11388;54.456;9.752;2022-08-05T16:37:33;1.90;;;0.52;;
22441;SDS011;11388;54.456;9.752;2022-08-05T16:40:01;2.55;;;0.50;;
22441;SDS011;11388;54.456;9.752;2022-08-05T16:42:30;3.45;;;0.50;;
22441;SDS011;11388;54.456;9.752;2022-08-05T16:45:05;1.90;;;0.30;;
22441;SDS011;11388;54.456;9.752;2022-08-05T16:47:35;0.50;;;0.10;;
22441;SDS011;11388;54.456;9.752;2022-08-05T16:50:01;1.85;;;0.30;;
22441;SDS011;11388;54.456;9.752;2022-08-05T16:52:35;1.75;;;0.30;;
22441;SDS011;11388;54.456;9.752;2022-08-05T16:55:09;2.47;;;0.50;;
22441;SDS011;11388;54.456;9.752;2022-08-05T16:57:35;1.52;;;0.30;;
22441;SDS011;11388;54.456;9.752;2022-08-05T17:00:06;1.17;;;0.30;;
22441;SDS011;11388;54.456;9.752;2022-08-05T17:02:41;2.13;;;0.30;;
22441;SDS011;11388;54.456;9.752;2022-08-05T17:05:12;2.63;;;0.40;;
22441;SDS011;11388;54.456;9.752;2022-08-05T17:07:41;1.77;;;0.40;;
22441;SDS011;11388;54.456;9.752;2022-08-05T17:10:10;1.95;;;0.20;;
22441;SDS011;11388;54.456;9.752;2022-08-05T17:12:36;2.65;;;0.50;;
22441;SDS011;11388;54.456;9.752;2022-08-05T17:15:02;0.68;;;0.20;;
22441;SDS011;11388;54.456;9.752;2022-08-05T17:17:37;0.65;;;0.20;;
22441;SDS011;11388;54.456;9.752;2022-08-05T17:20:04;1.45;;;0.30;;
22441;SDS011;11388;54.456;9.752;2022-08-05T17:22:32;1.70;;;0.30;;
22441;SDS011;11388;54.456;9.752;2022-08-05T17:24:58;1.02;;;0.30;;
22441;SDS011;11388;54.456;9.752;2022-08-05T17:27:28;3.53;;;0.45;;
22441;SDS011;11388;54.456;9.752;2022-08-05T17:29:54;3.00;;;0.30;;
22441;SDS011;11388;54.456;9.752;2022-08-05T17:32:23;1.20;;;0.30;;
22441;SDS011;11388;54.456;9.752;2022-08-05T17:34:54;1.92;;;0.30;;
22441;SDS011;11388;54.456;9.752;2022-08-05T17:37:19;2.22;;;0.40;;
22441;SDS011;11388;54.456;9.752;2022-08-05T17:39:45;1.50;;;0.40;;
22441;SDS011;11388;54.456;9.752;2022-08-05T17:42:11;2.00;;;0.40;;
22441;SDS011;11388;54.456;9.752;2022-08-05T17:44:43;0.73;;;0.30;;
22441;SDS011;11388;54.456;9.752;2022-08-05T17:47:09;3.78;;;0.40;;
22441;SDS011;11388;54.456;9.752;2022-08-05T17:49:34;1.45;;;0.40;;